sensor_id;sensor_type;location;lat;lon;timestamp;P1;durP1;ratioP1;P2;durP2;ratioP2
5795;SDS011;2924;51.458;7.046;2023-03-24T00:02:26;9.47;;;2.00;;
5795;SDS011;2924;51.458;7.046;2023-03-24T00:04:52;3.07;;;2.03;;
5795;SDS011;2924;51.458;7.046;2023-03-24T00:07:22;6.37;;;2.03;;
5795;SDS011;2924;51.458;7.046;2023-03-24T00:09:48;3.97;;;2.20;;
5795;SDS011;2924;51.458;7.046;2023-03-24T00:12:14;4.70;;;2.47;;
5795;SDS011;2924;51.458;7.046;2023-03-24T00:14:43;5.13;;;2.27;;
5795;SDS011;2924;51.458;7.046;2023-03-24T00:17:12;2.47;;;2.20;;
5795;SDS011;2924;51.458;7.046;2023-03-24T00:19:38;7.40;;;2.17;;
5795;SDS011;2924;51.458;7.046;2023-03-24T00:22:05;2.40;;;2.20;;
5795;SDS011;2924;51.458;7.046;2023-03-24T00:24:32;2.40;;;1.70;;
5795;SDS011;2924;51.458;7.046;2023-03-24T00:26:58;6.63;;;2.07;;
5795;SDS011;2924;51.458;7.046;2023-03-24T00:29:24;2.80;;;1.90;;
5795;SDS011;2924;51.458;7.046;2023-03-24T00:31:50;2.10;;;1.80;;
5795;SDS011;2924;51.458;7.046;2023-03-24T00:34:17;8.53;;;2.00;;
5795;SDS011;2924;51.458;7.046;2023-03-24T00:36:47;2.43;;;1.90;;
5795;SDS011;2924;51.458;7.046;2023-03-24T00:39:15;3.90;;;2.27;;
5795;SDS011;2924;51.458;7.046;2023-03-24T00:41:45;3.47;;;2.37;;
5795;SDS011;2924;51.458;7.046;2023-03-24T00:44:11;8.13;;;1.73;;
5795;SDS011;2924;51.458;7.046;2023-03-24T00:46:41;3.07;;;1.70;;
5795;SDS011;2924;51.458;7.046;2023-03-24T00:49:10;5.23;;;1.57;;
5795;SDS011;2924;51.458;7.046;2023-03-24T00:51:40;2.30;;;1.53;;
5795;SDS011;2924;51.458;7.046;2023-03-24T00:54:07;2.70;;;2.20;;
5795;SDS011;2924;51.458;7.046;2023-03-24T00:56:35;3.27;;;2.30;;
5795;SDS011;2924;51.458;7.046;2023-03-24T00:59:04;3.07;;;2.07;;
5795;SDS011;2924;51.458;7.046;2023-03-24T01:01:34;1.80;;;1.70;;
5795;SDS011;2924;51.458;7.046;2023-03-24T01:04:05;1.70;;;1.63;;
5795;SDS011;2924;51.458;7.046;2023-03-24T01:06:30;3.17;;;2.83;;
5795;SDS011;2924;51.458;7.046;2023-03-24T01:08:56;1.50;;;1.43;;
5795;SDS011;2924;51.458;7.046;2023-03-24T01:11:23;2.20;;;1.53;;
5795;SDS011;2924;51.458;7.046;2023-03-24T01:13:50;4.40;;;2.03;;
5795;SDS011;2924;51.458;7.046;2023-03-24T01:16:18;2.87;;;1.93;;
5795;SDS011;2924;51.458;7.046;2023-03-24T01:18:44;3.63;;;1.83;;
5795;SDS011;2924;51.458;7.046;2023-03-24T01:21:10;1.70;;;1.60;;
5795;SDS011;2924;51.458;7.046;2023-03-24T01:23:37;2.77;;;1.90;;
5795;SDS011;2924;51.458;7.046;2023-03-24T01:26:06;3.10;;;2.20;;
5795;SDS011;2924;51.458;7.046;2023-03-24T01:28:34;6.50;;;2.40;;
5795;SDS011;2924;51.458;7.046;2023-03-24T01:31:04;2.53;;;2.07;;
5795;SDS011;2924;51.458;7.046;2023-03-24T01:33:31;3.30;;;2.20;;
5795;SDS011;2924;51.458;7.046;2023-03-24T01:35:57;1.80;;;1.70;;
5795;SDS011;2924;51.458;7.046;2023-03-24T01:38:22;3.37;;;2.10;;
5795;SDS011;2924;51.458;7.046;2023-03-24T01:40:48;2.47;;;2.37;;
5795;SDS011;2924;51.458;7.046;2023-03-24T01:43:19;9.23;;;2.60;;
5795;SDS011;2924;51.458;7.046;2023-03-24T01:45:53;5.33;;;2.43;;
5795;SDS011;2924;51.458;7.046;2023-03-24T01:48:29;4.60;;;2.40;;
5795;SDS011;2924;51.458;7.046;2023-03-24T01:51:18;3.60;;;2.47;;
5795;SDS011;2924;51.458;7.046;2023-03-24T01:53:52;2.10;;;1.93;;
5795;SDS011;2924;51.458;7.046;2023-03-24T01:56:25;4.53;;;3.00;;
5795;SDS011;2924;51.458;7.046;2023-03-24T01:58:55;2.60;;;2.40;;
5795;SDS011;2924;51.458;7.046;2023-03-24T02:01:23;4.93;;;2.30;;
5795;SDS011;2924;51.458;7.046;2023-03-24T02:03:54;2.57;;;2.43;;
5795;SDS011;2924;51.458;7.046;2023-03-24T02:06:20;3.17;;;2.50;;
5795;SDS011;2924;51.458;7.046;2023-03-24T02:08:51;3.80;;;3.47;;
5795;SDS011;2924;51.458;7.046;2023-03-24T02:11:22;3.63;;;2.47;;
5795;SDS011;2924;51.458;7.046;2023-03-24T02:13:50;3.33;;;2.40;;
5795;SDS011;2924;51.458;7.046;2023-03-24T02:19:22;4.40;;;2.77;;
5795;SDS011;2924;51.458;7.046;2023-03-24T02:28:30;2.20;;;2.10;;
5795;SDS011;2924;51.458;7.046;2023-03-24T02:31:10;5.17;;;2.53;;
5795;SDS011;2924;51.458;7.046;2023-03-24T02:47:45;2.77;;;2.57;;
5795;SDS011;2924;51.458;7.046;2023-03-24T02:50:41;6.10;;;2.53;;
5795;SDS011;2924;51.458;7.046;2023-03-24T02:53:19;8.20;;;2.30;;
5795;SDS011;2924;51.458;7.046;2023-03-24T02:58:54;2.07;;;1.87;;
5795;SDS011;2924;51.458;7.046;2023-03-24T03:01:34;2.77;;;2.50;;
5795;SDS011;2924;51.458;7.046;2023-03-24T03:04:09;5.77;;;2.50;;
5795;SDS011;2924;51.458;7.046;2023-03-24T03:06:38;2.63;;;2.43;;
5795;SDS011;2924;51.458;7.046;2023-03-24T03:09:09;2.30;;;1.80;;
5795;SDS011;2924;51.458;7.046;2023-03-24T03:11:38;4.07;;;1.93;;
5795;SDS011;2924;51.458;7.046;2023-03-24T03:14:07;1.80;;;1.70;;
5795;SDS011;2924;51.458;7.046;2023-03-24T03:16:40;2.20;;;2.00;;
5795;SDS011;2924;51.458;7.046;2023-03-24T03:19:19;3.33;;;2.43;;
5795;SDS011;2924;51.458;7.046;2023-03-24T03:21:47;3.63;;;2.47;;
5795;SDS011;2924;51.458;7.046;2023-03-24T03:24:18;2.27;;;2.10;;
5795;SDS011;2924;51.458;7.046;2023-03-24T03:26:50;3.37;;;2.60;;
5795;SDS011;2924;51.458;7.046;2023-03-24T03:29:21;3.53;;;1.70;;
5795;SDS011;2924;51.458;7.046;2023-03-24T03:31:51;2.03;;;1.93;;
5795;SDS011;2924;51.458;7.046;2023-03-24T03:34:37;2.10;;;2.00;;
5795;SDS011;2924;51.458;7.046;2023-03-24T03:40:21;2.43;;;1.67;;
5795;SDS011;2924;51.458;7.046;2023-03-24T03:42:51;3.60;;;2.03;;
5795;SDS011;2924;51.458;7.046;2023-03-24T03:45:20;2.93;;;2.10;;
5795;SDS011;2924;51.458;7.046;2023-03-24T03:47:46;1.93;;;1.73;;
5795;SDS011;2924;51.458;7.046;2023-03-24T03:50:12;3.77;;;1.50;;
5795;SDS011;2924;51.458;7.046;2023-03-24T03:52:38;2.87;;;2.03;;
5795;SDS011;2924;51.458;7.046;2023-03-24T03:55:05;1.77;;;1.67;;
5795;SDS011;2924;51.458;7.046;2023-03-24T03:57:33;2.17;;;2.03;;
5795;SDS011;2924;51.458;7.046;2023-03-24T04:00:00;2.50;;;1.90;;
5795;SDS011;2924;51.458;7.046;2023-03-24T04:05:35;3.20;;;2.13;;
5795;SDS011;2924;51.458;7.046;2023-03-24T04:08:10;2.17;;;2.00;;
5795;SDS011;2924;51.458;7.046;2023-03-24T04:10:51;2.50;;;1.90;;
5795;SDS011;2924;51.458;7.046;2023-03-24T04:14:36;2.87;;;2.63;;
5795;SDS011;2924;51.458;7.046;2023-03-24T04:24:43;2.67;;;2.47;;
5795;SDS011;2924;51.458;7.046;2023-03-24T04:27:39;6.17;;;2.90;;
5795;SDS011;2924;51.458;7.046;2023-03-24T04:33:18;4.20;;;2.33;;
5795;SDS011;2924;51.458;7.046;2023-03-24T04:35:55;3.63;;;3.43;;
5795;SDS011;2924;51.458;7.046;2023-03-24T04:38:30;2.60;;;2.40;;
5795;SDS011;2924;51.458;7.046;2023-03-24T04:41:00;1.97;;;1.83;;
5795;SDS011;2924;51.458;7.046;2023-03-24T04:43:27;3.70;;;2.37;;
5795;SDS011;2924;51.458;7.046;2023-03-24T04:46:00;2.50;;;2.40;;
5795;SDS011;2924;51.458;7.046;2023-03-24T04:48:27;5.50;;;3.10;;
5795;SDS011;2924;51.458;7.046;2023-03-24T04:50:58;3.20;;;2.37;;
5795;SDS011;2924;51.458;7.046;2023-03-24T04:53:25;2.67;;;2.47;;
5795;SDS011;2924;51.458;7.046;2023-03-24T04:56:06;2.50;;;2.30;;
5795;SDS011;2924;51.458;7.046;2023-03-24T04:58:37;3.03;;;2.13;;
5795;SDS011;2924;51.458;7.046;2023-03-24T05:01:03;4.20;;;2.87;;
5795;SDS011;2924;51.458;7.046;2023-03-24T05:03:29;3.77;;;2.30;;
5795;SDS011;2924;51.458;7.046;2023-03-24T05:05:55;4.30;;;3.10;;
5795;SDS011;2924;51.458;7.046;2023-03-24T05:08:23;3.03;;;2.77;;
5795;SDS011;2924;51.458;7.046;2023-03-24T05:10:49;3.47;;;2.90;;
5795;SDS011;2924;51.458;7.046;2023-03-24T05:13:14;2.87;;;2.67;;
5795;SDS011;2924;51.458;7.046;2023-03-24T05:15:40;3.90;;;2.83;;
5795;SDS011;2924;51.458;7.046;2023-03-24T05:18:06;5.17;;;3.30;;
5795;SDS011;2924;51.458;7.046;2023-03-24T05:20:32;3.00;;;2.00;;
5795;SDS011;2924;51.458;7.046;2023-03-24T05:22:58;4.47;;;2.20;;
5795;SDS011;2924;51.458;7.046;2023-03-24T05:25:25;4.03;;;2.30;;
5795;SDS011;2924;51.458;7.046;2023-03-24T05:27:51;4.10;;;1.60;;
5795;SDS011;2924;51.458;7.046;2023-03-24T05:30:16;3.53;;;1.30;;
5795;SDS011;2924;51.458;7.046;2023-03-24T05:32:44;1.00;;;0.93;;
5795;SDS011;2924;51.458;7.046;2023-03-24T05:35:10;5.13;;;1.33;;
5795;SDS011;2924;51.458;7.046;2023-03-24T05:37:35;4.20;;;1.37;;
5795;SDS011;2924;51.458;7.046;2023-03-24T05:40:01;2.87;;;1.60;;
5795;SDS011;2924;51.458;7.046;2023-03-24T05:42:26;6.40;;;1.50;;
5795;SDS011;2924;51.458;7.046;2023-03-24T05:44:52;2.60;;;1.20;;
5795;SDS011;2924;51.458;7.046;2023-03-24T05:47:17;4.83;;;1.20;;
5795;SDS011;2924;51.458;7.046;2023-03-24T05:49:47;4.10;;;1.30;;
5795;SDS011;2924;51.458;7.046;2023-03-24T05:52:12;4.23;;;1.40;;
5795;SDS011;2924;51.458;7.046;2023-03-24T05:54:40;2.00;;;1.43;;
5795;SDS011;2924;51.458;7.046;2023-03-24T05:57:07;11.83;;;1.63;;
5795;SDS011;2924;51.458;7.046;2023-03-24T05:59:36;2.43;;;1.63;;
5795;SDS011;2924;51.458;7.046;2023-03-24T06:02:02;3.50;;;2.13;;
5795;SDS011;2924;51.458;7.046;2023-03-24T06:04:28;1.63;;;1.53;;
5795;SDS011;2924;51.458;7.046;2023-03-24T06:06:54;8.83;;;1.80;;
5795;SDS011;2924;51.458;7.046;2023-03-24T06:09:23;5.73;;;1.83;;
5795;SDS011;2924;51.458;7.046;2023-03-24T06:11:49;3.60;;;0.90;;
5795;SDS011;2924;51.458;7.046;2023-03-24T06:14:15;3.40;;;1.17;;
5795;SDS011;2924;51.458;7.046;2023-03-24T06:16:40;5.90;;;1.47;;
5795;SDS011;2924;51.458;7.046;2023-03-24T06:19:06;6.30;;;1.60;;
5795;SDS011;2924;51.458;7.046;2023-03-24T06:21:32;3.50;;;1.63;;
5795;SDS011;2924;51.458;7.046;2023-03-24T06:23:58;4.50;;;1.17;;
5795;SDS011;2924;51.458;7.046;2023-03-24T06:26:24;5.57;;;1.73;;
5795;SDS011;2924;51.458;7.046;2023-03-24T06:28:50;3.60;;;1.30;;
5795;SDS011;2924;51.458;7.046;2023-03-24T06:31:17;6.00;;;1.53;;
5795;SDS011;2924;51.458;7.046;2023-03-24T06:33:44;7.07;;;1.87;;
5795;SDS011;2924;51.458;7.046;2023-03-24T06:36:10;12.93;;;2.17;;
5795;SDS011;2924;51.458;7.046;2023-03-24T06:38:36;6.90;;;1.43;;
5795;SDS011;2924;51.458;7.046;2023-03-24T06:41:03;3.90;;;1.60;;
5795;SDS011;2924;51.458;7.046;2023-03-24T06:43:29;6.03;;;1.50;;
5795;SDS011;2924;51.458;7.046;2023-03-24T06:45:55;12.00;;;1.47;;
5795;SDS011;2924;51.458;7.046;2023-03-24T06:48:21;5.97;;;1.43;;
5795;SDS011;2924;51.458;7.046;2023-03-24T06:50:47;7.63;;;1.40;;
5795;SDS011;2924;51.458;7.046;2023-03-24T06:53:13;4.00;;;1.37;;
5795;SDS011;2924;51.458;7.046;2023-03-24T06:55:38;4.63;;;1.57;;
5795;SDS011;2924;51.458;7.046;2023-03-24T06:58:04;4.87;;;1.80;;
5795;SDS011;2924;51.458;7.046;2023-03-24T07:00:30;5.20;;;1.40;;
5795;SDS011;2924;51.458;7.046;2023-03-24T07:02:56;3.70;;;1.37;;
5795;SDS011;2924;51.458;7.046;2023-03-24T07:05:21;9.57;;;2.00;;
5795;SDS011;2924;51.458;7.046;2023-03-24T07:07:47;4.70;;;1.57;;
5795;SDS011;2924;51.458;7.046;2023-03-24T07:10:14;7.00;;;1.80;;
5795;SDS011;2924;51.458;7.046;2023-03-24T07:12:40;6.07;;;1.70;;
5795;SDS011;2924;51.458;7.046;2023-03-24T07:15:06;7.30;;;2.03;;
5795;SDS011;2924;51.458;7.046;2023-03-24T07:17:33;4.63;;;2.00;;
5795;SDS011;2924;51.458;7.046;2023-03-24T07:19:59;11.10;;;2.20;;
5795;SDS011;2924;51.458;7.046;2023-03-24T07:22:25;12.10;;;3.37;;
5795;SDS011;2924;51.458;7.046;2023-03-24T07:24:51;7.77;;;1.90;;
5795;SDS011;2924;51.458;7.046;2023-03-24T07:27:16;7.50;;;1.83;;
5795;SDS011;2924;51.458;7.046;2023-03-24T07:29:42;11.20;;;2.37;;
5795;SDS011;2924;51.458;7.046;2023-03-24T07:32:07;7.77;;;1.83;;
5795;SDS011;2924;51.458;7.046;2023-03-24T07:34:33;12.50;;;2.27;;
5795;SDS011;2924;51.458;7.046;2023-03-24T07:37:00;10.07;;;1.93;;
5795;SDS011;2924;51.458;7.046;2023-03-24T07:39:26;5.77;;;1.83;;
5795;SDS011;2924;51.458;7.046;2023-03-24T07:41:52;10.57;;;1.97;;
5795;SDS011;2924;51.458;7.046;2023-03-24T07:44:17;8.40;;;2.67;;
5795;SDS011;2924;51.458;7.046;2023-03-24T07:46:43;6.00;;;1.80;;
5795;SDS011;2924;51.458;7.046;2023-03-24T07:49:09;14.60;;;3.83;;
5795;SDS011;2924;51.458;7.046;2023-03-24T07:51:35;6.63;;;2.10;;
5795;SDS011;2924;51.458;7.046;2023-03-24T07:54:01;5.53;;;1.47;;
5795;SDS011;2924;51.458;7.046;2023-03-24T07:56:27;6.73;;;1.83;;
5795;SDS011;2924;51.458;7.046;2023-03-24T07:58:52;6.77;;;1.77;;
5795;SDS011;2924;51.458;7.046;2023-03-24T08:01:18;7.50;;;1.80;;
5795;SDS011;2924;51.458;7.046;2023-03-24T08:03:43;7.20;;;1.80;;
5795;SDS011;2924;51.458;7.046;2023-03-24T08:06:12;6.23;;;1.47;;
5795;SDS011;2924;51.458;7.046;2023-03-24T08:08:38;8.40;;;1.50;;
5795;SDS011;2924;51.458;7.046;2023-03-24T08:11:04;9.87;;;2.33;;
5795;SDS011;2924;51.458;7.046;2023-03-24T08:13:30;7.13;;;1.80;;
5795;SDS011;2924;51.458;7.046;2023-03-24T08:15:55;4.73;;;1.27;;
5795;SDS011;2924;51.458;7.046;2023-03-24T08:18:21;6.70;;;1.57;;
5795;SDS011;2924;51.458;7.046;2023-03-24T08:20:48;7.97;;;1.87;;
5795;SDS011;2924;51.458;7.046;2023-03-24T08:23:14;11.27;;;1.37;;
5795;SDS011;2924;51.458;7.046;2023-03-24T08:25:42;6.83;;;1.93;;
5795;SDS011;2924;51.458;7.046;2023-03-24T08:28:07;10.87;;;2.60;;
5795;SDS011;2924;51.458;7.046;2023-03-24T08:30:34;9.63;;;1.77;;
5795;SDS011;2924;51.458;7.046;2023-03-24T08:33:00;11.10;;;1.60;;
5795;SDS011;2924;51.458;7.046;2023-03-24T08:35:28;6.40;;;1.90;;
5795;SDS011;2924;51.458;7.046;2023-03-24T08:37:55;6.00;;;1.80;;
5795;SDS011;2924;51.458;7.046;2023-03-24T08:40:24;9.67;;;1.70;;
5795;SDS011;2924;51.458;7.046;2023-03-24T08:42:51;7.90;;;1.80;;
5795;SDS011;2924;51.458;7.046;2023-03-24T08:45:20;5.03;;;1.03;;
5795;SDS011;2924;51.458;7.046;2023-03-24T08:47:48;15.43;;;1.57;;
5795;SDS011;2924;51.458;7.046;2023-03-24T08:50:16;14.47;;;2.60;;
5795;SDS011;2924;51.458;7.046;2023-03-24T08:52:43;9.10;;;1.93;;
5795;SDS011;2924;51.458;7.046;2023-03-24T08:55:12;7.93;;;1.97;;
5795;SDS011;2924;51.458;7.046;2023-03-24T08:57:38;5.23;;;1.63;;
5795;SDS011;2924;51.458;7.046;2023-03-24T09:00:03;11.73;;;2.90;;
5795;SDS011;2924;51.458;7.046;2023-03-24T09:02:49;3.80;;;1.53;;
5795;SDS011;2924;51.458;7.046;2023-03-24T09:05:18;7.70;;;1.90;;
5795;SDS011;2924;51.458;7.046;2023-03-24T09:07:45;6.93;;;1.70;;
5795;SDS011;2924;51.458;7.046;2023-03-24T09:10:12;12.03;;;2.13;;
5795;SDS011;2924;51.458;7.046;2023-03-24T09:12:39;10.23;;;2.30;;
5795;SDS011;2924;51.458;7.046;2023-03-24T09:15:06;12.80;;;2.00;;
5795;SDS011;2924;51.458;7.046;2023-03-24T09:17:33;12.20;;;1.97;;
5795;SDS011;2924;51.458;7.046;2023-03-24T09:19:59;10.50;;;1.77;;
5795;SDS011;2924;51.458;7.046;2023-03-24T09:22:25;9.23;;;2.20;;
5795;SDS011;2924;51.458;7.046;2023-03-24T09:24:50;11.87;;;2.57;;
5795;SDS011;2924;51.458;7.046;2023-03-24T09:27:16;8.83;;;1.90;;
5795;SDS011;2924;51.458;7.046;2023-03-24T09:29:42;6.60;;;2.20;;
5795;SDS011;2924;51.458;7.046;2023-03-24T09:32:07;6.70;;;1.97;;
5795;SDS011;2924;51.458;7.046;2023-03-24T09:34:33;10.90;;;2.83;;
5795;SDS011;2924;51.458;7.046;2023-03-24T09:37:00;8.20;;;2.37;;
5795;SDS011;2924;51.458;7.046;2023-03-24T09:39:25;6.50;;;1.83;;
5795;SDS011;2924;51.458;7.046;2023-03-24T09:41:52;12.97;;;2.20;;
5795;SDS011;2924;51.458;7.046;2023-03-24T09:47:04;15.53;;;3.37;;
5795;SDS011;2924;51.458;7.046;2023-03-24T09:49:39;10.73;;;2.43;;
5795;SDS011;2924;51.458;7.046;2023-03-24T09:52:11;19.17;;;2.33;;
5795;SDS011;2924;51.458;7.046;2023-03-24T09:54:49;15.40;;;2.00;;
5795;SDS011;2924;51.458;7.046;2023-03-24T09:59:51;13.50;;;3.20;;
5795;SDS011;2924;51.458;7.046;2023-03-24T10:02:20;10.03;;;2.00;;
5795;SDS011;2924;51.458;7.046;2023-03-24T10:04:46;20.23;;;2.87;;
5795;SDS011;2924;51.458;7.046;2023-03-24T10:09:55;9.77;;;1.97;;
5795;SDS011;2924;51.458;7.046;2023-03-24T10:12:35;15.87;;;3.10;;
5795;SDS011;2924;51.458;7.046;2023-03-24T10:25:42;14.10;;;2.13;;
5795;SDS011;2924;51.458;7.046;2023-03-24T10:28:17;12.43;;;2.40;;
5795;SDS011;2924;51.458;7.046;2023-03-24T10:31:00;7.97;;;2.13;;
5795;SDS011;2924;51.458;7.046;2023-03-24T10:33:29;7.17;;;1.90;;
5795;SDS011;2924;51.458;7.046;2023-03-24T10:38:38;4.50;;;2.00;;
5795;SDS011;2924;51.458;7.046;2023-03-24T10:41:04;10.67;;;2.43;;
5795;SDS011;2924;51.458;7.046;2023-03-24T10:43:30;8.50;;;1.97;;
5795;SDS011;2924;51.458;7.046;2023-03-24T10:45:56;10.80;;;2.13;;
5795;SDS011;2924;51.458;7.046;2023-03-24T10:51:06;10.90;;;2.07;;
5795;SDS011;2924;51.458;7.046;2023-03-24T10:53:43;22.83;;;2.10;;
5795;SDS011;2924;51.458;7.046;2023-03-24T10:56:36;9.60;;;2.10;;
5795;SDS011;2924;51.458;7.046;2023-03-24T10:59:18;5.60;;;1.60;;
5795;SDS011;2924;51.458;7.046;2023-03-24T11:01:45;4.67;;;1.40;;
5795;SDS011;2924;51.458;7.046;2023-03-24T11:04:15;6.33;;;2.03;;
5795;SDS011;2924;51.458;7.046;2023-03-24T11:07:03;13.33;;;2.47;;
5795;SDS011;2924;51.458;7.046;2023-03-24T11:09:41;5.97;;;1.50;;
5795;SDS011;2924;51.458;7.046;2023-03-24T11:12:24;5.53;;;1.30;;
5795;SDS011;2924;51.458;7.046;2023-03-24T11:14:51;4.83;;;1.93;;
5795;SDS011;2924;51.458;7.046;2023-03-24T11:17:24;9.60;;;1.57;;
5795;SDS011;2924;51.458;7.046;2023-03-24T11:19:55;5.50;;;1.70;;
5795;SDS011;2924;51.458;7.046;2023-03-24T11:22:21;2.53;;;1.33;;
5795;SDS011;2924;51.458;7.046;2023-03-24T11:24:49;10.20;;;1.60;;
5795;SDS011;2924;51.458;7.046;2023-03-24T11:27:19;8.50;;;1.50;;
5795;SDS011;2924;51.458;7.046;2023-03-24T11:29:49;6.37;;;1.83;;
5795;SDS011;2924;51.458;7.046;2023-03-24T11:32:24;5.20;;;1.60;;
5795;SDS011;2924;51.458;7.046;2023-03-24T11:35:12;6.90;;;2.30;;
5795;SDS011;2924;51.458;7.046;2023-03-24T11:37:43;8.20;;;1.70;;
5795;SDS011;2924;51.458;7.046;2023-03-24T11:40:14;6.80;;;2.30;;
5795;SDS011;2924;51.458;7.046;2023-03-24T11:42:48;4.30;;;1.83;;
5795;SDS011;2924;51.458;7.046;2023-03-24T11:45:26;8.77;;;2.13;;
5795;SDS011;2924;51.458;7.046;2023-03-24T11:48:01;5.63;;;1.43;;
5795;SDS011;2924;51.458;7.046;2023-03-24T11:50:36;8.00;;;1.40;;
5795;SDS011;2924;51.458;7.046;2023-03-24T11:58:29;3.17;;;1.33;;
5795;SDS011;2924;51.458;7.046;2023-03-24T12:01:05;6.13;;;1.67;;
5795;SDS011;2924;51.458;7.046;2023-03-24T12:04:02;7.30;;;1.80;;
5795;SDS011;2924;51.458;7.046;2023-03-24T12:07:50;10.73;;;2.27;;
5795;SDS011;2924;51.458;7.046;2023-03-24T12:20:24;2.90;;;1.40;;
5795;SDS011;2924;51.458;7.046;2023-03-24T12:23:03;14.37;;;1.57;;
5795;SDS011;2924;51.458;7.046;2023-03-24T12:28:34;11.53;;;1.83;;
5795;SDS011;2924;51.458;7.046;2023-03-24T12:44:32;3.70;;;1.10;;
5795;SDS011;2924;51.458;7.046;2023-03-24T12:47:22;12.23;;;2.20;;
5795;SDS011;2924;51.458;7.046;2023-03-24T12:50:21;3.03;;;1.33;;
5795;SDS011;2924;51.458;7.046;2023-03-24T12:55:53;7.90;;;1.80;;
5795;SDS011;2924;51.458;7.046;2023-03-24T12:58:33;4.87;;;1.30;;
5795;SDS011;2924;51.458;7.046;2023-03-24T13:07:04;9.80;;;1.73;;
5795;SDS011;2924;51.458;7.046;2023-03-24T13:12:18;4.13;;;1.53;;
5795;SDS011;2924;51.458;7.046;2023-03-24T13:17:43;9.63;;;2.33;;
5795;SDS011;2924;51.458;7.046;2023-03-24T13:20:31;10.50;;;1.33;;
5795;SDS011;2924;51.458;7.046;2023-03-24T13:23:01;7.40;;;2.83;;
5795;SDS011;2924;51.458;7.046;2023-03-24T13:25:49;7.53;;;1.87;;
5795;SDS011;2924;51.458;7.046;2023-03-24T13:28:24;14.63;;;2.20;;
5795;SDS011;2924;51.458;7.046;2023-03-24T13:30:54;8.10;;;1.97;;
5795;SDS011;2924;51.458;7.046;2023-03-24T13:33:22;7.23;;;1.53;;
5795;SDS011;2924;51.458;7.046;2023-03-24T13:35:56;3.90;;;1.50;;
5795;SDS011;2924;51.458;7.046;2023-03-24T13:38:34;4.87;;;1.90;;
5795;SDS011;2924;51.458;7.046;2023-03-24T13:41:04;6.47;;;1.73;;
5795;SDS011;2924;51.458;7.046;2023-03-24T13:43:32;4.90;;;1.30;;
5795;SDS011;2924;51.458;7.046;2023-03-24T13:46:02;14.00;;;2.20;;
5795;SDS011;2924;51.458;7.046;2023-03-24T13:56:03;13.83;;;2.70;;
5795;SDS011;2924;51.458;7.046;2023-03-24T13:58:44;8.80;;;2.60;;
5795;SDS011;2924;51.458;7.046;2023-03-24T14:01:33;8.77;;;2.10;;
5795;SDS011;2924;51.458;7.046;2023-03-24T14:04:19;9.10;;;2.23;;
5795;SDS011;2924;51.458;7.046;2023-03-24T14:17:13;5.37;;;1.10;;
5795;SDS011;2924;51.458;7.046;2023-03-24T14:19:43;3.80;;;1.13;;
5795;SDS011;2924;51.458;7.046;2023-03-24T14:22:33;9.10;;;1.30;;
5795;SDS011;2924;51.458;7.046;2023-03-24T14:25:04;3.17;;;1.23;;
5795;SDS011;2924;51.458;7.046;2023-03-24T14:27:44;10.50;;;1.23;;
5795;SDS011;2924;51.458;7.046;2023-03-24T14:32:57;1.40;;;1.30;;
5795;SDS011;2924;51.458;7.046;2023-03-24T14:38:17;7.43;;;1.40;;
5795;SDS011;2924;51.458;7.046;2023-03-24T14:40:48;6.27;;;2.07;;
5795;SDS011;2924;51.458;7.046;2023-03-24T14:48:31;2.57;;;1.20;;
5795;SDS011;2924;51.458;7.046;2023-03-24T14:51:26;5.23;;;1.63;;
5795;SDS011;2924;51.458;7.046;2023-03-24T14:54:12;2.87;;;1.40;;
5795;SDS011;2924;51.458;7.046;2023-03-24T14:56:59;4.40;;;1.87;;
5795;SDS011;2924;51.458;7.046;2023-03-24T15:02:42;9.10;;;1.47;;
5795;SDS011;2924;51.458;7.046;2023-03-24T15:07:41;7.03;;;1.50;;
5795;SDS011;2924;51.458;7.046;2023-03-24T15:10:15;6.40;;;1.77;;
5795;SDS011;2924;51.458;7.046;2023-03-24T15:12:45;4.97;;;1.40;;
5795;SDS011;2924;51.458;7.046;2023-03-24T15:15:16;5.27;;;2.30;;
5795;SDS011;2924;51.458;7.046;2023-03-24T15:17:45;4.63;;;1.47;;
5795;SDS011;2924;51.458;7.046;2023-03-24T15:20:24;5.17;;;1.30;;
5795;SDS011;2924;51.458;7.046;2023-03-24T15:22:53;2.97;;;1.40;;
5795;SDS011;2924;51.458;7.046;2023-03-24T15:25:25;5.43;;;1.80;;
5795;SDS011;2924;51.458;7.046;2023-03-24T15:27:52;4.80;;;1.50;;
5795;SDS011;2924;51.458;7.046;2023-03-24T15:30:19;4.23;;;1.53;;
5795;SDS011;2924;51.458;7.046;2023-03-24T15:32:45;5.30;;;1.80;;
5795;SDS011;2924;51.458;7.046;2023-03-24T15:35:13;2.67;;;0.80;;
5795;SDS011;2924;51.458;7.046;2023-03-24T15:37:41;5.63;;;1.07;;
5795;SDS011;2924;51.458;7.046;2023-03-24T15:42:57;5.43;;;1.73;;
5795;SDS011;2924;51.458;7.046;2023-03-24T15:45:29;7.90;;;1.83;;
5795;SDS011;2924;51.458;7.046;2023-03-24T15:48:14;6.10;;;1.70;;
5795;SDS011;2924;51.458;7.046;2023-03-24T15:50:58;8.20;;;1.40;;
5795;SDS011;2924;51.458;7.046;2023-03-24T15:53:27;3.67;;;1.43;;
5795;SDS011;2924;51.458;7.046;2023-03-24T15:56:06;5.93;;;1.40;;
5795;SDS011;2924;51.458;7.046;2023-03-24T15:58:53;4.23;;;1.10;;
5795;SDS011;2924;51.458;7.046;2023-03-24T16:01:24;7.50;;;1.27;;
5795;SDS011;2924;51.458;7.046;2023-03-24T16:03:51;7.57;;;1.70;;
5795;SDS011;2924;51.458;7.046;2023-03-24T16:06:28;11.50;;;1.80;;
5795;SDS011;2924;51.458;7.046;2023-03-24T16:08:59;6.97;;;1.50;;
5795;SDS011;2924;51.458;7.046;2023-03-24T16:11:29;2.50;;;1.17;;
5795;SDS011;2924;51.458;7.046;2023-03-24T16:13:55;3.47;;;1.10;;
5795;SDS011;2924;51.458;7.046;2023-03-24T16:16:27;1.70;;;1.00;;
5795;SDS011;2924;51.458;7.046;2023-03-24T16:18:54;2.70;;;1.37;;
5795;SDS011;2924;51.458;7.046;2023-03-24T16:23:48;2.00;;;0.93;;
5795;SDS011;2924;51.458;7.046;2023-03-24T16:26:25;2.70;;;1.00;;
5795;SDS011;2924;51.458;7.046;2023-03-24T16:28:53;0.80;;;0.80;;
5795;SDS011;2924;51.458;7.046;2023-03-24T16:33:57;5.07;;;1.30;;
5795;SDS011;2924;51.458;7.046;2023-03-24T16:36:23;4.67;;;1.10;;
5795;SDS011;2924;51.458;7.046;2023-03-24T16:38:55;7.03;;;1.40;;
5795;SDS011;2924;51.458;7.046;2023-03-24T16:41:22;1.80;;;1.10;;
5795;SDS011;2924;51.458;7.046;2023-03-24T16:43:48;1.83;;;0.80;;
5795;SDS011;2924;51.458;7.046;2023-03-24T16:46:15;3.87;;;0.77;;
5795;SDS011;2924;51.458;7.046;2023-03-24T16:48:49;2.70;;;0.77;;
5795;SDS011;2924;51.458;7.046;2023-03-24T16:51:15;2.10;;;0.90;;
5795;SDS011;2924;51.458;7.046;2023-03-24T16:53:41;2.10;;;0.70;;
5795;SDS011;2924;51.458;7.046;2023-03-24T16:56:08;2.87;;;0.77;;
5795;SDS011;2924;51.458;7.046;2023-03-24T16:58:36;1.60;;;0.70;;
5795;SDS011;2924;51.458;7.046;2023-03-24T17:01:02;1.00;;;0.50;;
5795;SDS011;2924;51.458;7.046;2023-03-24T17:03:38;1.30;;;0.63;;
5795;SDS011;2924;51.458;7.046;2023-03-24T17:06:04;2.33;;;0.80;;
5795;SDS011;2924;51.458;7.046;2023-03-24T17:08:30;1.27;;;0.70;;
5795;SDS011;2924;51.458;7.046;2023-03-24T17:10:55;4.30;;;1.00;;
5795;SDS011;2924;51.458;7.046;2023-03-24T17:13:22;1.03;;;0.60;;
5795;SDS011;2924;51.458;7.046;2023-03-24T17:15:50;1.77;;;0.60;;
5795;SDS011;2924;51.458;7.046;2023-03-24T17:18:16;2.83;;;0.67;;
5795;SDS011;2924;51.458;7.046;2023-03-24T17:20:42;2.13;;;0.70;;
5795;SDS011;2924;51.458;7.046;2023-03-24T17:23:09;1.83;;;0.70;;
5795;SDS011;2924;51.458;7.046;2023-03-24T17:25:36;3.90;;;0.77;;
5795;SDS011;2924;51.458;7.046;2023-03-24T17:28:02;1.23;;;0.60;;
5795;SDS011;2924;51.458;7.046;2023-03-24T17:30:28;2.10;;;0.83;;
5795;SDS011;2924;51.458;7.046;2023-03-24T17:32:54;1.60;;;0.63;;
5795;SDS011;2924;51.458;7.046;2023-03-24T17:35:21;1.13;;;0.73;;
5795;SDS011;2924;51.458;7.046;2023-03-24T17:37:47;1.33;;;0.83;;
5795;SDS011;2924;51.458;7.046;2023-03-24T17:40:14;3.87;;;0.80;;
5795;SDS011;2924;51.458;7.046;2023-03-24T17:42:42;2.00;;;0.73;;
5795;SDS011;2924;51.458;7.046;2023-03-24T17:45:10;3.07;;;0.53;;
5795;SDS011;2924;51.458;7.046;2023-03-24T17:47:38;1.10;;;0.50;;
5795;SDS011;2924;51.458;7.046;2023-03-24T17:50:04;2.10;;;0.77;;
5795;SDS011;2924;51.458;7.046;2023-03-24T17:52:42;2.00;;;0.90;;
5795;SDS011;2924;51.458;7.046;2023-03-24T17:55:10;3.07;;;0.67;;
5795;SDS011;2924;51.458;7.046;2023-03-24T17:57:36;1.43;;;0.80;;
5795;SDS011;2924;51.458;7.046;2023-03-24T18:00:02;3.60;;;0.60;;
5795;SDS011;2924;51.458;7.046;2023-03-24T18:02:30;4.50;;;0.83;;
5795;SDS011;2924;51.458;7.046;2023-03-24T18:04:56;1.70;;;1.00;;
5795;SDS011;2924;51.458;7.046;2023-03-24T18:07:22;1.03;;;0.90;;
5795;SDS011;2924;51.458;7.046;2023-03-24T18:09:48;4.30;;;0.90;;